Time;durP1;ratioP1;P1;durP2;ratioP2;P2;SDS_P1;SDS_P2;PMS_P1;PMS_P2;Temp;Humidity;BMP_temperature;BMP_pressure;BME280_temperature;BME280_humidity;BME280_pressure;Samples;Min_cycle;Max_cycle;Signal;HPM_P1;HPM_P2
2021/07/02 00:02:28;;;;;;;7.95;1.95;;;;;;;;;;5110478;27;20392;-69
2021/07/02 00:04:54;;;;;;;6.22;1.92;;;;;;;;;;5110064;28;20488;-68
2021/07/02 00:07:20;;;;;;;2.80;1.70;;;;;;;;;;5110412;28;20084;-70
2021/07/02 00:09:46;;;;;;;6.47;1.95;;;;;;;;;;5109091;28;20106;-69
2021/07/02 00:12:12;;;;;;;5.72;2.05;;;;;;;;;;5109889;28;20031;-69
2021/07/02 00:14:39;;;;;;;5.22;2.03;;;;;;;;;;5110490;28;20026;-69
2021/07/02 00:17:05;;;;;;;6.18;2.08;;;;;;;;;;5110315;28;20043;-69
2021/07/02 00:19:33;;;;;;;6.30;2.08;;;;;;;;;;5109825;28;20059;-69
2021/07/02 00:21:59;;;;;;;6.63;1.95;;;;;;;;;;5110097;28;20059;-69
2021/07/02 00:24:25;;;;;;;5.28;1.83;;;;;;;;;;5109723;28;20099;-69
2021/07/02 00:26:51;;;;;;;5.53;1.52;;;;;;;;;;5110426;28;20028;-69
2021/07/02 00:29:17;;;;;;;6.43;2.10;;;;;;;;;;5110083;28;20384;-69
2021/07/02 00:31:43;;;;;;;4.20;1.50;;;;;;;;;;5109611;28;20031;-69
2021/07/02 00:34:10;;;;;;;7.30;2.50;;;;;;;;;;5110177;28;20012;-70
2021/07/02 00:36:36;;;;;;;9.27;2.42;;;;;;;;;;5108826;28;20045;-70
2021/07/02 00:39:02;;;;;;;5.53;2.10;;;;;;;;;;5108133;28;20016;-70
2021/07/02 00:41:28;;;;;;;5.35;2.17;;;;;;;;;;5108391;28;20055;-70
2021/07/02 00:43:56;;;;;;;8.32;2.42;;;;;;;;;;5108418;28;20028;-69
2021/07/02 00:46:23;;;;;;;5.47;2.38;;;;;;;;;;5109352;28;20028;-70
2021/07/02 00:48:50;;;;;;;5.82;2.13;;;;;;;;;;5109609;28;20023;-70
2021/07/02 00:51:42;;;;;;;6.75;2.17;;;;;;;;;;5070434;28;20387;-69
2021/07/02 00:54:10;;;;;;;10.65;2.85;;;;;;;;;;5069585;28;20025;-69
2021/07/02 00:56:37;;;;;;;10.75;2.22;;;;;;;;;;5070019;28;20059;-69
2021/07/02 00:59:03;;;;;;;7.88;2.13;;;;;;;;;;5069779;28;20457;-69
2021/07/02 01:01:29;;;;;;;12.57;2.42;;;;;;;;;;5069304;28;20055;-69
2021/07/02 01:03:55;;;;;;;7.93;2.55;;;;;;;;;;5069751;28;20017;-68
2021/07/02 01:06:21;;;;;;;5.90;2.58;;;;;;;;;;5068340;28;20028;-69
2021/07/02 01:08:47;;;;;;;7.30;2.70;;;;;;;;;;5069240;28;20492;-68
2021/07/02 01:12:22;;;;;;;7.20;2.75;;;;;;;;;;5110481;27;20812;-68
2021/07/02 01:14:48;;;;;;;6.63;2.10;;;;;;;;;;5110311;28;20069;-68
2021/07/02 01:17:15;;;;;;;5.82;2.15;;;;;;;;;;5110531;28;20030;-69
2021/07/02 01:19:52;;;;;;;8.68;2.22;;;;;;;;;;5110445;28;20020;-69
2021/07/02 01:23:35;;;;;;;6.43;2.25;;;;;;;;;;5110435;27;20746;-68
2021/07/02 01:26:02;;;;;;;7.45;2.50;;;;;;;;;;5110445;28;20486;-68
2021/07/02 01:28:28;;;;;;;9.50;2.60;;;;;;;;;;5110071;28;20028;-68
2021/07/02 01:30:54;;;;;;;9.45;2.60;;;;;;;;;;5110412;28;20315;-68
2021/07/02 01:33:20;;;;;;;8.50;2.53;;;;;;;;;;5110399;28;20043;-68
2021/07/02 01:35:47;;;;;;;14.38;2.72;;;;;;;;;;5110178;28;20020;-68
2021/07/02 01:38:13;;;;;;;7.43;2.17;;;;;;;;;;5110345;28;20498;-68
2021/07/02 01:41:51;;;;;;;8.88;2.28;;;;;;;;;;5110091;27;20913;-68
2021/07/02 01:44:17;;;;;;;6.72;2.10;;;;;;;;;;5110526;28;20042;-68
2021/07/02 01:46:44;;;;;;;8.10;2.88;;;;;;;;;;5110389;28;20020;-68
2021/07/02 01:49:10;;;;;;;6.10;2.40;;;;;;;;;;5108696;28;20116;-68
2021/07/02 01:52:03;;;;;;;11.38;2.65;;;;;;;;;;5110527;27;20888;-68
2021/07/02 01:55:04;;;;;;;8.23;2.33;;;;;;;;;;5110792;27;20389;-69
2021/07/02 01:57:30;;;;;;;6.45;2.40;;;;;;;;;;5110261;28;20012;-68
2021/07/02 01:59:56;;;;;;;9.85;3.03;;;;;;;;;;5110445;28;20023;-68
2021/07/02 02:02:23;;;;;;;7.28;2.30;;;;;;;;;;5110425;28;20420;-68
2021/07/02 02:04:49;;;;;;;7.95;2.60;;;;;;;;;;5109933;28;20024;-69
2021/07/02 02:07:15;;;;;;;7.70;2.72;;;;;;;;;;5110272;28;20095;-69
2021/07/02 02:10:41;;;;;;;6.90;3.05;;;;;;;;;;5130567;27;20491;-68
2021/07/02 02:13:08;;;;;;;6.07;2.50;;;;;;;;;;5110448;28;20103;-68
2021/07/02 02:15:34;;;;;;;7.20;2.97;;;;;;;;;;5110583;28;20108;-68
2021/07/02 02:18:00;;;;;;;6.38;2.83;;;;;;;;;;5110159;28;20394;-69
2021/07/02 02:20:27;;;;;;;5.72;2.47;;;;;;;;;;5092030;28;20038;-68
2021/07/02 02:22:53;;;;;;;9.32;3.17;;;;;;;;;;5110330;28;20098;-68
2021/07/02 02:25:19;;;;;;;5.63;3.05;;;;;;;;;;5109783;28;20212;-68
2021/07/02 02:29:09;;;;;;;10.10;3.63;;;;;;;;;;5110503;27;20522;-67
2021/07/02 02:33:24;;;;;;;6.80;3.40;;;;;;;;;;5069949;27;20423;-68
2021/07/02 02:36:16;;;;;;;5.47;3.03;;;;;;;;;;5110791;27;20450;-68
2021/07/02 02:39:20;;;;;;;6.45;3.35;;;;;;;;;;5110220;27;20455;-68
2021/07/02 02:44:57;;;;;;;7.95;3.75;;;;;;;;;;5110102;27;20388;-68
2021/07/02 02:48:53;;;;;;;6.78;3.47;;;;;;;;;;5110496;27;20458;-68
2021/07/02 02:52:26;;;;;;;8.68;4.05;;;;;;;;;;5110093;27;20416;-68
2021/07/02 02:55:50;;;;;;;8.55;4.05;;;;;;;;;;5110800;27;20442;-68
2021/07/02 02:58:16;;;;;;;6.50;3.92;;;;;;;;;;5109261;28;20115;-68
2021/07/02 03:00:42;;;;;;;9.00;4.45;;;;;;;;;;5108841;28;20360;-68
2021/07/02 03:03:09;;;;;;;6.00;4.28;;;;;;;;;;5110431;28;20107;-68
2021/07/02 03:05:35;;;;;;;8.90;3.85;;;;;;;;;;5108966;28;20053;-68
2021/07/02 03:08:01;;;;;;;6.50;4.45;;;;;;;;;;5109917;28;20042;-68
2021/07/02 03:10:44;;;;;;;8.98;4.20;;;;;;;;;;5110495;27;20470;-68
2021/07/02 03:13:10;;;;;;;6.82;3.60;;;;;;;;;;5110045;28;20027;-68
2021/07/02 03:15:36;;;;;;;12.60;4.50;;;;;;;;;;5110530;28;20058;-68
2021/07/02 03:18:21;;;;;;;7.45;4.10;;;;;;;;;;5110695;27;20385;-68
2021/07/02 03:20:47;;;;;;;7.85;3.90;;;;;;;;;;5110172;28;20031;-68
2021/07/02 03:23:24;;;;;;;11.95;5.63;;;;;;;;;;5110468;27;20450;-68
2021/07/02 03:27:36;;;;;;;7.95;4.60;;;;;;;;;;5110000;27;20392;-68
2021/07/02 03:30:02;;;;;;;5.47;3.63;;;;;;;;;;5110482;28;20024;-69
2021/07/02 03:32:29;;;;;;;10.02;4.70;;;;;;;;;;5110438;28;20031;-68
2021/07/02 03:34:55;;;;;;;12.02;3.80;;;;;;;;;;5110226;28;20028;-68
2021/07/02 03:37:21;;;;;;;6.00;3.45;;;;;;;;;;5110298;28;20104;-69
2021/07/02 03:39:47;;;;;;;7.25;3.58;;;;;;;;;;5110287;28;20460;-68
2021/07/02 03:43:16;;;;;;;7.53;3.60;;;;;;;;;;5110004;27;20318;-68
2021/07/02 03:45:42;;;;;;;8.63;4.10;;;;;;;;;;5110413;28;20030;-68
2021/07/02 03:48:08;;;;;;;5.53;3.65;;;;;;;;;;5110456;28;20024;-68
2021/07/02 03:50:34;;;;;;;6.47;3.22;;;;;;;;;;5110148;28;20046;-69
2021/07/02 03:53:01;;;;;;;4.50;3.20;;;;;;;;;;5109427;28;20065;-69
2021/07/02 03:55:27;;;;;;;5.50;3.22;;;;;;;;;;5109951;28;20020;-69
2021/07/02 03:57:53;;;;;;;8.18;4.07;;;;;;;;;;5110257;28;20476;-69
2021/07/02 04:00:19;;;;;;;9.63;4.32;;;;;;;;;;5110216;28;20024;-69
2021/07/02 04:03:49;;;;;;;7.10;4.43;;;;;;;;;;5110240;27;20442;-69
2021/07/02 04:06:15;;;;;;;10.82;3.38;;;;;;;;;;5110573;28;20020;-69
2021/07/02 04:08:41;;;;;;;5.78;3.70;;;;;;;;;;5110421;28;20028;-69
2021/07/02 04:11:08;;;;;;;6.72;3.88;;;;;;;;;;5110050;28;20031;-69
2021/07/02 04:13:34;;;;;;;6.28;3.65;;;;;;;;;;5110490;28;20024;-68
2021/07/02 04:17:57;;;;;;;6.65;3.90;;;;;;;;;;5069453;28;20918;-69
2021/07/02 04:20:24;;;;;;;9.38;5.07;;;;;;;;;;5069970;28;20021;-69
2021/07/02 04:22:50;;;;;;;8.38;5.55;;;;;;;;;;5068545;28;20051;-69
2021/07/02 04:25:16;;;;;;;7.70;4.80;;;;;;;;;;5069482;28;20036;-69
2021/07/02 04:27:42;;;;;;;7.32;3.92;;;;;;;;;;5068459;28;20078;-69
2021/07/02 04:32:08;;;;;;;6.25;3.83;;;;;;;;;;5069595;28;20388;-68
2021/07/02 04:34:35;;;;;;;7.00;3.67;;;;;;;;;;5070061;28;20032;-68
2021/07/02 04:38:46;;;;;;;5.68;3.42;;;;;;;;;;5110053;27;20513;-68
2021/07/02 04:41:13;;;;;;;5.00;2.95;;;;;;;;;;5109133;28;20028;-69
2021/07/02 04:43:39;;;;;;;7.25;4.35;;;;;;;;;;5110386;28;20122;-69
2021/07/02 04:46:19;;;;;;;7.60;4.43;;;;;;;;;;5110040;27;20120;-68
2021/07/02 04:48:45;;;;;;;5.18;3.60;;;;;;;;;;5109172;28;20176;-68
2021/07/02 04:53:03;;;;;;;5.93;3.13;;;;;;;;;;5110268;27;20404;-69
2021/07/02 04:55:29;;;;;;;7.07;3.65;;;;;;;;;;5110603;28;20023;-69
2021/07/02 04:57:55;;;;;;;8.10;3.60;;;;;;;;;;5110383;28;20024;-69
2021/07/02 05:00:24;;;;;;;7.55;3.85;;;;;;;;;;5110012;28;20039;-69
2021/07/02 05:02:51;;;;;;;7.97;4.15;;;;;;;;;;5108974;28;20051;-68
2021/07/02 05:05:17;;;;;;;5.30;3.45;;;;;;;;;;5108972;28;20476;-68
2021/07/02 05:07:43;;;;;;;5.70;3.50;;;;;;;;;;5109872;28;20050;-68
2021/07/02 05:10:09;;;;;;;7.05;3.92;;;;;;;;;;5110173;28;20020;-70
2021/07/02 05:12:36;;;;;;;5.05;3.78;;;;;;;;;;5109463;28;20032;-68
2021/07/02 05:15:02;;;;;;;6.35;3.67;;;;;;;;;;5107416;28;20407;-68
2021/07/02 05:17:28;;;;;;;7.13;3.50;;;;;;;;;;5116589;28;20019;-68
2021/07/02 05:21:53;;;;;;;6.30;4.10;;;;;;;;;;5068557;28;20927;-68
2021/07/02 05:24:19;;;;;;;6.75;3.92;;;;;;;;;;5066717;28;20204;-68
2021/07/02 05:28:36;;;;;;;6.50;3.78;;;;;;;;;;5108199;27;20513;-70
2021/07/02 05:31:02;;;;;;;6.93;4.30;;;;;;;;;;5107305;28;20058;-69
2021/07/02 05:33:28;;;;;;;6.13;3.28;;;;;;;;;;5109051;28;20031;-70
2021/07/02 05:35:54;;;;;;;9.10;4.60;;;;;;;;;;5109219;28;20027;-70
2021/07/02 05:38:20;;;;;;;9.30;4.35;;;;;;;;;;5108980;28;20016;-70
2021/07/02 05:40:47;;;;;;;5.35;3.78;;;;;;;;;;5109625;28;20404;-70
2021/07/02 05:43:13;;;;;;;10.63;5.05;;;;;;;;;;5110243;28;20035;-70
2021/07/02 05:46:22;;;;;;;12.57;4.88;;;;;;;;;;5130852;27;20191;-70
2021/07/02 05:48:49;;;;;;;9.57;3.90;;;;;;;;;;5109963;28;20030;-70
2021/07/02 05:51:15;;;;;;;6.05;4.10;;;;;;;;;;5102145;28;20099;-69
2021/07/02 05:53:41;;;;;;;6.47;4.50;;;;;;;;;;5096091;28;20024;-71
2021/07/02 05:56:07;;;;;;;8.60;4.57;;;;;;;;;;5088989;28;20025;-69
2021/07/02 05:58:33;;;;;;;9.38;4.93;;;;;;;;;;5089152;28;20020;-69
2021/07/02 06:00:59;;;;;;;12.30;6.68;;;;;;;;;;5070407;28;20020;-69
2021/07/02 06:03:26;;;;;;;9.00;5.60;;;;;;;;;;5088841;28;20025;-70
2021/07/02 06:07:52;;;;;;;6.75;4.57;;;;;;;;;;5129885;27;20309;-68
2021/07/02 06:10:52;;;;;;;7.72;4.57;;;;;;;;;;5069511;28;20907;-69
2021/07/02 06:13:18;;;;;;;9.52;4.85;;;;;;;;;;5068784;28;20070;-70
2021/07/02 06:15:44;;;;;;;9.00;4.93;;;;;;;;;;5068589;28;20438;-69
2021/07/02 06:18:11;;;;;;;7.05;4.90;;;;;;;;;;5068005;28;20029;-69
2021/07/02 06:20:37;;;;;;;7.00;4.60;;;;;;;;;;5069182;28;20059;-69
2021/07/02 06:23:04;;;;;;;5.90;4.72;;;;;;;;;;5069015;28;20017;-70
2021/07/02 06:25:30;;;;;;;10.55;4.68;;;;;;;;;;5068269;28;20029;-70
2021/07/02 06:28:17;;;;;;;9.43;4.65;;;;;;;;;;5108635;27;20453;-70
2021/07/02 06:30:43;;;;;;;10.57;4.50;;;;;;;;;;5109966;28;20032;-69
2021/07/02 06:33:10;;;;;;;9.15;3.95;;;;;;;;;;5108930;28;20027;-70
2021/07/02 06:35:37;;;;;;;9.75;5.07;;;;;;;;;;5110024;28;20492;-70
2021/07/02 06:40:14;;;;;;;14.35;5.03;;;;;;;;;;5110132;27;21008;-70
2021/07/02 06:42:41;;;;;;;7.43;5.10;;;;;;;;;;5108718;28;20440;-69
2021/07/02 06:45:07;;;;;;;8.00;4.82;;;;;;;;;;5109487;28;20027;-70
2021/07/02 06:47:34;;;;;;;6.47;4.57;;;;;;;;;;5109958;28;20437;-70
2021/07/02 06:50:00;;;;;;;7.57;4.70;;;;;;;;;;5109540;28;20487;-71
2021/07/02 06:52:26;;;;;;;10.82;4.88;;;;;;;;;;5109452;28;20024;-71
2021/07/02 06:54:52;;;;;;;8.10;4.72;;;;;;;;;;5108655;28;20024;-70
2021/07/02 06:57:18;;;;;;;9.30;4.90;;;;;;;;;;5106254;28;20611;-72
2021/07/02 06:59:45;;;;;;;9.07;5.45;;;;;;;;;;5107483;28;20483;-70
2021/07/02 07:02:12;;;;;;;8.75;5.43;;;;;;;;;;5107857;28;20031;-72
2021/07/02 07:04:39;;;;;;;11.10;4.28;;;;;;;;;;5107632;28;20548;-71
2021/07/02 07:07:35;;;;;;;12.95;4.43;;;;;;;;;;5067455;28;20757;-69
2021/07/02 07:10:02;;;;;;;8.65;4.72;;;;;;;;;;5069234;28;20052;-70
2021/07/02 07:12:29;;;;;;;8.60;4.55;;;;;;;;;;5068075;28;20075;-70
2021/07/02 07:14:55;;;;;;;12.63;4.28;;;;;;;;;;5067798;28;20067;-70
2021/07/02 07:17:21;;;;;;;8.02;4.15;;;;;;;;;;5068475;28;20031;-71
2021/07/02 07:19:47;;;;;;;7.05;3.92;;;;;;;;;;5068622;28;20017;-70
2021/07/02 07:22:14;;;;;;;7.57;3.90;;;;;;;;;;5067816;28;20132;-71
2021/07/02 07:24:40;;;;;;;6.30;3.97;;;;;;;;;;5069162;28;20017;-70
2021/07/02 07:27:17;;;;;;;7.57;4.13;;;;;;;;;;5109553;27;20116;-71
2021/07/02 07:29:44;;;;;;;5.03;3.75;;;;;;;;;;5110309;28;20089;-70
2021/07/02 07:32:10;;;;;;;5.50;3.47;;;;;;;;;;5108802;28;20024;-70
2021/07/02 07:34:50;;;;;;;6.43;3.88;;;;;;;;;;5109122;28;20091;-70
2021/07/02 07:37:22;;;;;;;6.65;3.85;;;;;;;;;;5109110;28;20460;-70
2021/07/02 07:39:49;;;;;;;7.20;4.80;;;;;;;;;;5108528;28;20067;-70
2021/07/02 07:42:16;;;;;;;9.13;3.83;;;;;;;;;;5108868;28;20511;-70
2021/07/02 07:44:42;;;;;;;9.40;4.00;;;;;;;;;;5107760;28;20024;-70
2021/07/02 07:47:09;;;;;;;7.90;4.38;;;;;;;;;;5108195;28;20089;-69
2021/07/02 07:49:35;;;;;;;9.20;4.25;;;;;;;;;;5105361;28;20023;-68
2021/07/02 07:54:37;;;;;;;8.05;4.75;;;;;;;;;;5107774;28;20020;-69
2021/07/02 07:57:16;;;;;;;5.03;3.40;;;;;;;;;;5110111;27;20469;-70
2021/07/02 07:59:42;;;;;;;6.57;3.95;;;;;;;;;;5109857;28;20070;-69
2021/07/02 08:02:09;;;;;;;9.95;4.50;;;;;;;;;;5109581;28;20028;-69
2021/07/02 08:04:35;;;;;;;9.18;4.55;;;;;;;;;;5109959;28;20091;-69
2021/07/02 08:07:01;;;;;;;8.35;5.18;;;;;;;;;;5110101;28;20065;-69
2021/07/02 08:09:29;;;;;;;7.50;3.90;;;;;;;;;;5108492;28;20030;-70
2021/07/02 08:11:58;;;;;;;8.75;4.75;;;;;;;;;;5108673;28;20381;-69
2021/07/02 08:14:24;;;;;;;7.25;3.83;;;;;;;;;;5110004;28;20133;-70
2021/07/02 08:16:50;;;;;;;6.32;3.97;;;;;;;;;;5108514;28;20024;-69
2021/07/02 08:19:18;;;;;;;6.20;3.83;;;;;;;;;;5108945;28;20020;-70
2021/07/02 08:21:45;;;;;;;11.85;4.57;;;;;;;;;;5106884;28;20012;-72
2021/07/02 08:24:12;;;;;;;5.80;3.50;;;;;;;;;;5109039;28;20111;-70
2021/07/02 08:26:44;;;;;;;7.40;3.80;;;;;;;;;;5107861;28;20061;-68
2021/07/02 08:29:22;;;;;;;7.90;4.10;;;;;;;;;;5108731;28;20123;-69
2021/07/02 08:31:50;;;;;;;10.63;4.20;;;;;;;;;;5108004;28;20020;-69
2021/07/02 08:34:18;;;;;;;13.85;4.97;;;;;;;;;;5109344;28;20028;-70
2021/07/02 08:36:44;;;;;;;6.35;4.10;;;;;;;;;;5108755;28;20036;-69
2021/07/02 08:39:10;;;;;;;12.65;3.95;;;;;;;;;;5107931;28;20383;-69
2021/07/02 08:43:49;;;;;;;12.48;4.07;;;;;;;;;;5047213;28;20378;-70
2021/07/02 08:46:18;;;;;;;6.60;3.53;;;;;;;;;;5043657;28;20056;-70
2021/07/02 08:48:45;;;;;;;17.42;4.22;;;;;;;;;;5049603;28;20034;-70
2021/07/02 08:51:25;;;;;;;7.70;3.30;;;;;;;;;;5029458;28;20400;-70
2021/07/02 08:53:53;;;;;;;4.82;3.13;;;;;;;;;;5028527;28;20717;-69
2021/07/02 08:56:20;;;;;;;3.55;2.50;;;;;;;;;;5025042;28;20453;-70
2021/07/02 08:58:46;;;;;;;4.22;2.63;;;;;;;;;;5027499;28;20105;-69
2021/07/02 09:01:32;;;;;;;4.10;2.88;;;;;;;;;;5029559;28;20022;-70
2021/07/02 09:04:14;;;;;;;6.15;2.80;;;;;;;;;;5029028;28;20053;-69
2021/07/02 09:06:41;;;;;;;6.03;2.67;;;;;;;;;;5025162;28;20026;-70
2021/07/02 09:09:09;;;;;;;4.45;2.72;;;;;;;;;;5025338;28;20067;-71
2021/07/02 09:11:36;;;;;;;4.10;2.30;;;;;;;;;;5021981;28;20041;-69
2021/07/02 09:14:04;;;;;;;4.60;2.38;;;;;;;;;;5025134;28;20022;-69
2021/07/02 09:16:37;;;;;;;6.95;2.40;;;;;;;;;;5027510;28;20028;-70
2021/07/02 09:19:22;;;;;;;3.55;2.03;;;;;;;;;;5028603;28;20026;-69
2021/07/02 09:21:49;;;;;;;7.75;2.60;;;;;;;;;;5028963;28;20030;-69
2021/07/02 09:24:34;;;;;;;5.13;2.30;;;;;;;;;;5024733;28;20032;-69
2021/07/02 09:27:00;;;;;;;6.00;2.92;;;;;;;;;;5027833;28;20022;-70
2021/07/02 09:29:26;;;;;;;10.68;2.83;;;;;;;;;;5023619;28;20454;-70
2021/07/02 09:31:59;;;;;;;5.60;2.92;;;;;;;;;;5021464;28;20037;-70
2021/07/02 09:34:44;;;;;;;6.05;4.22;;;;;;;;;;5027664;28;20076;-69
2021/07/02 09:37:20;;;;;;;4.05;2.30;;;;;;;;;;5026197;28;20044;-70
2021/07/02 09:39:46;;;;;;;7.05;2.25;;;;;;;;;;5025804;28;20034;-69
2021/07/02 09:42:29;;;;;;;7.93;2.38;;;;;;;;;;5026315;28;20060;-69
2021/07/02 09:45:04;;;;;;;7.95;2.30;;;;;;;;;;5027083;28;20026;-69
2021/07/02 09:47:30;;;;;;;4.93;2.50;;;;;;;;;;5028516;28;20033;-70
2021/07/02 09:50:13;;;;;;;5.32;2.08;;;;;;;;;;5026936;28;20529;-69
2021/07/02 09:53:08;;;;;;;4.32;2.58;;;;;;;;;;5021584;28;20791;-69
2021/07/02 09:55:36;;;;;;;4.65;2.13;;;;;;;;;;5027262;28;20034;-70
2021/07/02 09:58:10;;;;;;;2.40;2.05;;;;;;;;;;5027319;28;20026;-69
2021/07/02 10:00:40;;;;;;;5.35;2.78;;;;;;;;;;5019548;28;20021;-69
2021/07/02 10:03:07;;;;;;;2.97;1.85;;;;;;;;;;5014184;28;20030;-68
2021/07/02 10:06:02;;;;;;;3.90;2.17;;;;;;;;;;5015201;28;20029;-69
2021/07/02 10:08:33;;;;;;;5.43;2.45;;;;;;;;;;5006976;28;20674;-69
2021/07/02 10:11:00;;;;;;;4.22;2.28;;;;;;;;;;5013735;28;20030;-68
2021/07/02 10:13:31;;;;;;;4.13;2.30;;;;;;;;;;5011457;28;20087;-70
2021/07/02 10:15:58;;;;;;;9.45;1.95;;;;;;;;;;5012315;28;20026;-69
2021/07/02 10:18:27;;;;;;;2.78;1.70;;;;;;;;;;5014845;28;20026;-68
2021/07/02 10:20:54;;;;;;;3.25;1.77;;;;;;;;;;5013483;28;20038;-69
2021/07/02 10:23:36;;;;;;;6.63;2.10;;;;;;;;;;5013718;28;20032;-68
2021/07/02 10:26:05;;;;;;;2.63;1.60;;;;;;;;;;5014846;28;20029;-69
2021/07/02 10:28:31;;;;;;;3.63;2.03;;;;;;;;;;5013928;28;20368;-69
2021/07/02 10:30:58;;;;;;;4.18;1.90;;;;;;;;;;5013214;28;20052;-70
2021/07/02 10:33:27;;;;;;;6.60;2.22;;;;;;;;;;5013682;28;20486;-69
2021/07/02 10:35:54;;;;;;;3.92;2.03;;;;;;;;;;5011564;28;20038;-71
2021/07/02 10:38:21;;;;;;;2.60;1.67;;;;;;;;;;5013737;28;20040;-70
2021/07/02 10:40:47;;;;;;;3.00;1.90;;;;;;;;;;5013300;28;20037;-70
2021/07/02 10:43:18;;;;;;;4.63;1.67;;;;;;;;;;5011849;28;20589;-69
2021/07/02 10:46:02;;;;;;;2.30;1.50;;;;;;;;;;5014720;28;20022;-69
2021/07/02 10:48:47;;;;;;;2.17;1.52;;;;;;;;;;5014709;28;20498;-71
2021/07/02 10:51:39;;;;;;;2.45;1.77;;;;;;;;;;5013846;28;20057;-70
2021/07/02 10:54:08;;;;;;;2.53;1.70;;;;;;;;;;5002276;28;20037;-70
2021/07/02 10:56:34;;;;;;;2.58;1.80;;;;;;;;;;5013906;28;20072;-69
2021/07/02 10:59:02;;;;;;;3.35;1.52;;;;;;;;;;5013810;28;20065;-69
2021/07/02 11:01:32;;;;;;;3.83;1.90;;;;;;;;;;5014238;28;20029;-70
2021/07/02 11:04:16;;;;;;;3.42;1.52;;;;;;;;;;5014096;28;20109;-69
2021/07/02 11:06:43;;;;;;;5.20;1.83;;;;;;;;;;5013646;28;20529;-69
2021/07/02 11:09:09;;;;;;;9.10;1.95;;;;;;;;;;5014201;28;20107;-69
2021/07/02 11:11:54;;;;;;;2.83;1.52;;;;;;;;;;5013734;28;20205;-69
2021/07/02 11:14:22;;;;;;;9.55;1.55;;;;;;;;;;5012409;28;20033;-70
2021/07/02 11:17:07;;;;;;;4.25;1.58;;;;;;;;;;5014100;28;20029;-71
2021/07/02 11:19:33;;;;;;;5.10;1.63;;;;;;;;;;5013611;28;20091;-71
2021/07/02 11:22:29;;;;;;;6.63;1.90;;;;;;;;;;5013827;28;20018;-70
2021/07/02 11:25:02;;;;;;;5.13;1.88;;;;;;;;;;5017328;28;20077;-70
2021/07/02 11:27:38;;;;;;;4.55;2.40;;;;;;;;;;5013657;28;20053;-68
2021/07/02 11:30:09;;;;;;;5.35;2.15;;;;;;;;;;5013974;28;20471;-72
2021/07/02 11:32:35;;;;;;;5.05;2.33;;;;;;;;;;5013421;28;20022;-69
2021/07/02 11:35:19;;;;;;;4.65;2.10;;;;;;;;;;5013795;28;20030;-69
2021/07/02 11:38:01;;;;;;;6.60;1.90;;;;;;;;;;5013656;28;20052;-69
2021/07/02 11:40:30;;;;;;;4.47;2.05;;;;;;;;;;5013389;28;20076;-71
2021/07/02 11:42:57;;;;;;;2.50;1.23;;;;;;;;;;5012970;28;20022;-68
2021/07/02 11:45:37;;;;;;;4.65;1.42;;;;;;;;;;5013748;28;20026;-71
2021/07/02 11:48:04;;;;;;;3.20;1.35;;;;;;;;;;5006750;28;20065;-71
2021/07/02 11:50:43;;;;;;;4.03;1.35;;;;;;;;;;5013006;28;20050;-71
2021/07/02 11:53:26;;;;;;;2.35;1.20;;;;;;;;;;5011064;28;20646;-71
2021/07/02 11:56:03;;;;;;;3.53;1.25;;;;;;;;;;5012942;28;20211;-71
2021/07/02 11:58:31;;;;;;;3.17;1.35;;;;;;;;;;5013353;28;20506;-71
2021/07/02 12:01:04;;;;;;;2.60;1.15;;;;;;;;;;5010731;28;20034;-69
2021/07/02 12:03:30;;;;;;;2.85;1.38;;;;;;;;;;5013318;28;20084;-70
2021/07/02 12:05:58;;;;;;;3.83;1.30;;;;;;;;;;5013159;28;20026;-70
2021/07/02 12:08:25;;;;;;;1.90;1.00;;;;;;;;;;5012810;28;20021;-69
2021/07/02 12:11:09;;;;;;;4.07;1.58;;;;;;;;;;5012606;28;20041;-69
2021/07/02 12:13:35;;;;;;;1.00;0.80;;;;;;;;;;5013230;28;20030;-69
2021/07/02 12:16:12;;;;;;;1.20;0.90;;;;;;;;;;5012694;28;20054;-70
2021/07/02 12:18:39;;;;;;;5.60;1.10;;;;;;;;;;5013184;28;20470;-70
2021/07/02 12:21:13;;;;;;;2.47;0.98;;;;;;;;;;5013197;28;20026;-69
2021/07/02 12:23:41;;;;;;;2.45;1.10;;;;;;;;;;5011330;28;20018;-69
2021/07/02 12:26:20;;;;;;;1.60;0.95;;;;;;;;;;5012845;28;20046;-70
2021/07/02 12:28:59;;;;;;;3.95;1.00;;;;;;;;;;5013065;28;20048;-70
2021/07/02 12:31:26;;;;;;;1.73;1.00;;;;;;;;;;5013012;28;20041;-70
2021/07/02 12:33:53;;;;;;;3.88;1.10;;;;;;;;;;5012655;28;20022;-70
2021/07/02 12:36:19;;;;;;;1.77;1.30;;;;;;;;;;5011072;28;20030;-70
2021/07/02 12:39:04;;;;;;;1.67;1.30;;;;;;;;;;5011967;28;20025;-71
2021/07/02 12:41:46;;;;;;;3.65;1.27;;;;;;;;;;5012172;28;20026;-69
2021/07/02 12:44:12;;;;;;;;;;;;;;;;;;5010741;28;20033;-69
2021/07/02 12:46:38;;;;;;;3.08;1.00;;;;;;;;;;5010941;28;19932;-69
2021/07/02 12:49:37;;;;;;;2.63;0.93;;;;;;;;;;5010958;28;20030;-69
2021/07/02 12:55:01;;;;;;;3.03;1.00;;;;;;;;;;5012061;28;20443;-70
2021/07/02 12:57:27;;;;;;;;;;;;;;;;;;5013040;28;20044;-69
2021/07/02 12:59:55;;;;;;;2.55;1.10;;;;;;;;;;5012692;28;19916;-70
2021/07/02 13:02:22;;;;;;;5.60;1.20;;;;;;;;;;5012648;28;20034;-70
2021/07/02 13:04:49;;;;;;;1.10;0.90;;;;;;;;;;5012274;28;20482;-69
2021/07/02 13:07:15;;;;;;;2.72;1.05;;;;;;;;;;5011448;28;20033;-69
2021/07/02 13:09:41;;;;;;;4.07;0.98;;;;;;;;;;5012773;28;20095;-70
2021/07/02 13:12:15;;;;;;;1.30;0.93;;;;;;;;;;5012239;28;20022;-70
2021/07/02 13:14:44;;;;;;;2.47;1.08;;;;;;;;;;5012505;28;20026;-69
2021/07/02 13:17:10;;;;;;;1.65;1.00;;;;;;;;;;5012482;28;20018;-70
2021/07/02 13:19:37;;;;;;;3.30;1.40;;;;;;;;;;5012141;28;20379;-70
2021/07/02 13:22:13;;;;;;;2.72;1.17;;;;;;;;;;5012436;28;20137;-70
2021/07/02 13:24:39;;;;;;;2.25;1.10;;;;;;;;;;5012398;28;20025;-70
2021/07/02 13:27:05;;;;;;;2.75;1.42;;;;;;;;;;5012128;28;20046;-71
2021/07/02 13:29:31;;;;;;;2.92;0.95;;;;;;;;;;5012653;28;20384;-69
2021/07/02 13:31:58;;;;;;;2.00;1.15;;;;;;;;;;5012522;28;20521;-69
2021/07/02 13:34:40;;;;;;;2.65;1.05;;;;;;;;;;5012017;28;20022;-69
2021/07/02 13:37:07;;;;;;;1.70;1.13;;;;;;;;;;5014316;28;20026;-70
2021/07/02 13:39:40;;;;;;;2.75;1.10;;;;;;;;;;5014357;28;20041;-70
2021/07/02 13:42:10;;;;;;;2.70;1.35;;;;;;;;;;5016005;28;20014;-71
2021/07/02 13:44:40;;;;;;;2.72;0.93;;;;;;;;;;5014660;28;20495;-70
2021/07/02 13:47:07;;;;;;;2.35;1.10;;;;;;;;;;5015595;28;20047;-69
2021/07/02 13:49:34;;;;;;;3.70;1.30;;;;;;;;;;5015764;28;20054;-69
2021/07/02 13:52:01;;;;;;;1.80;0.90;;;;;;;;;;5015999;28;20033;-70
2021/07/02 13:54:27;;;;;;;2.10;0.90;;;;;;;;;;5014223;28;20022;-70
2021/07/02 13:56:54;;;;;;;3.95;0.98;;;;;;;;;;5015643;28;20022;-68
2021/07/02 13:59:21;;;;;;;1.55;0.93;;;;;;;;;;5015743;28;20437;-70
2021/07/02 14:01:48;;;;;;;2.08;1.02;;;;;;;;;;5015361;28;20101;-70
2021/07/02 14:04:15;;;;;;;6.88;1.60;;;;;;;;;;5015577;28;20025;-70
2021/07/02 14:06:41;;;;;;;3.78;1.17;;;;;;;;;;5015558;28;20474;-69
2021/07/02 14:09:08;;;;;;;5.05;1.15;;;;;;;;;;5015247;28;20032;-69
2021/07/02 14:11:35;;;;;;;4.75;1.10;;;;;;;;;;5015497;28;20022;-69
2021/07/02 14:14:01;;;;;;;1.30;0.80;;;;;;;;;;5015453;28;20022;-70
2021/07/02 14:16:27;;;;;;;4.10;1.23;;;;;;;;;;5015030;28;20026;-70
2021/07/02 14:18:54;;;;;;;3.35;0.98;;;;;;;;;;5015405;28;20014;-70
2021/07/02 14:21:20;;;;;;;4.03;1.13;;;;;;;;;;5014926;28;20061;-69
2021/07/02 14:23:47;;;;;;;4.72;1.08;;;;;;;;;;5014053;28;20049;-70
2021/07/02 14:26:13;;;;;;;2.47;0.93;;;;;;;;;;5015468;28;20022;-71
2021/07/02 14:28:39;;;;;;;1.10;0.85;;;;;;;;;;5014915;28;20033;-70
2021/07/02 14:31:06;;;;;;;1.50;0.88;;;;;;;;;;5013780;28;20045;-70
2021/07/02 14:33:33;;;;;;;2.65;0.90;;;;;;;;;;5015124;28;20300;-70
2021/07/02 14:36:02;;;;;;;1.23;1.08;;;;;;;;;;5014668;28;20026;-70
2021/07/02 14:38:29;;;;;;;1.70;0.90;;;;;;;;;;5014934;28;20018;-71
2021/07/02 14:40:55;;;;;;;1.75;1.00;;;;;;;;;;5014945;28;20033;-71
2021/07/02 14:43:22;;;;;;;2.85;1.10;;;;;;;;;;5014827;28;20065;-71
2021/07/02 14:45:51;;;;;;;2.97;0.93;;;;;;;;;;5014968;28;20101;-70
2021/07/02 14:48:23;;;;;;;12.07;2.00;;;;;;;;;;5014623;28;20029;-70
2021/07/02 14:50:49;;;;;;;1.52;0.90;;;;;;;;;;5012972;28;20054;-69
2021/07/02 14:53:15;;;;;;;2.10;0.98;;;;;;;;;;5014707;28;20474;-70
2021/07/02 14:55:41;;;;;;;2.92;1.17;;;;;;;;;;5014650;28;20100;-70
2021/07/02 14:58:08;;;;;;;1.52;1.08;;;;;;;;;;5012971;28;20033;-70
2021/07/02 15:00:34;;;;;;;1.25;0.90;;;;;;;;;;5014583;28;20026;-70
2021/07/02 15:03:00;;;;;;;3.78;1.02;;;;;;;;;;5014700;28;20018;-71
2021/07/02 15:05:26;;;;;;;3.97;1.10;;;;;;;;;;5014284;28;20030;-69
2021/07/02 15:07:53;;;;;;;1.95;1.00;;;;;;;;;;5013179;28;20383;-69
2021/07/02 15:10:19;;;;;;;3.05;1.35;;;;;;;;;;5014337;28;20030;-69
2021/07/02 15:12:45;;;;;;;3.72;1.10;;;;;;;;;;5013969;28;20030;-70
2021/07/02 15:15:11;;;;;;;2.75;1.23;;;;;;;;;;5013152;28;20052;-68
2021/07/02 15:17:38;;;;;;;4.53;1.40;;;;;;;;;;5013880;28;20406;-68
2021/07/02 15:20:04;;;;;;;1.67;1.00;;;;;;;;;;5014220;28;20022;-72
2021/07/02 15:22:30;;;;;;;2.78;1.20;;;;;;;;;;5014228;28;20144;-69
2021/07/02 15:24:57;;;;;;;1.83;0.90;;;;;;;;;;5013874;28;20026;-69
2021/07/02 15:27:23;;;;;;;1.20;1.08;;;;;;;;;;5014137;28;20104;-69
2021/07/02 15:30:08;;;;;;;5.90;1.30;;;;;;;;;;5014088;28;20026;-70
2021/07/02 15:32:34;;;;;;;3.50;1.55;;;;;;;;;;5013737;28;20471;-70
2021/07/02 15:35:01;;;;;;;3.47;1.33;;;;;;;;;;5014057;28;20022;-70
2021/07/02 15:37:27;;;;;;;2.75;1.20;;;;;;;;;;5013813;28;20026;-68
2021/07/02 15:39:53;;;;;;;2.33;1.45;;;;;;;;;;5013473;28;20394;-69